Marsland, Nebraska
Current Conditions -  °F | °C
As of 5:53 PM on Sunday 23 Nov 2014 (Local Time) from KCDR Reporting Station
Overcast Overcast  
Wind Chill: 27°   Ceiling: 9000
Heat Index: 34°   Visibility: 10mi
Dew Point: 22°   Wind: 9mph
Humidity: 61%   Direction: 300°WNW
Pressure: 29.81"   Gusts: NA
Location:  42.44°N, 103.3°W
Report Text: KCDR 240053Z AUTO 30008KT 10SM OVC090 01/M06 A2981 RMK AO2 SLP125 T00111056
Loading
Personal Weather Stations






























Interactive Weather Map New forecast layout! Learn more

10-Day Weather Forecast

Advertisements
Track Severe Weather on mobile